sensor_id;sensor_type;location;lat;lon;timestamp;P1;durP1;ratioP1;P2;durP2;ratioP2
12048;SDS011;6085;49.452;8.502;2023-04-15T00:02:13;9.65;;;5.40;;
12048;SDS011;6085;49.452;8.502;2023-04-15T00:06:17;7.03;;;5.78;;
12048;SDS011;6085;49.452;8.502;2023-04-15T00:10:21;8.43;;;5.25;;
12048;SDS011;6085;49.452;8.502;2023-04-15T00:14:23;5.88;;;4.85;;
12048;SDS011;6085;49.452;8.502;2023-04-15T00:18:25;8.98;;;5.60;;
12048;SDS011;6085;49.452;8.502;2023-04-15T00:22:28;9.40;;;6.10;;
12048;SDS011;6085;49.452;8.502;2023-04-15T00:26:32;9.90;;;5.68;;
12048;SDS011;6085;49.452;8.502;2023-04-15T00:30:34;8.15;;;5.55;;
12048;SDS011;6085;49.452;8.502;2023-04-15T00:34:36;6.75;;;5.55;;
12048;SDS011;6085;49.452;8.502;2023-04-15T00:38:38;6.57;;;5.13;;
12048;SDS011;6085;49.452;8.502;2023-04-15T00:42:42;6.43;;;5.10;;
12048;SDS011;6085;49.452;8.502;2023-04-15T00:46:44;10.90;;;5.35;;
12048;SDS011;6085;49.452;8.502;2023-04-15T00:50:48;8.27;;;5.40;;
12048;SDS011;6085;49.452;8.502;2023-04-15T00:54:50;6.47;;;4.82;;
12048;SDS011;6085;49.452;8.502;2023-04-15T00:58:54;7.68;;;5.65;;
12048;SDS011;6085;49.452;8.502;2023-04-15T01:02:56;8.25;;;6.32;;
12048;SDS011;6085;49.452;8.502;2023-04-15T01:06:58;10.75;;;6.20;;
12048;SDS011;6085;49.452;8.502;2023-04-15T01:11:00;8.93;;;6.20;;
12048;SDS011;6085;49.452;8.502;2023-04-15T01:15:04;7.55;;;6.13;;
12048;SDS011;6085;49.452;8.502;2023-04-15T01:19:08;10.43;;;6.10;;
12048;SDS011;6085;49.452;8.502;2023-04-15T01:23:11;9.32;;;6.45;;
12048;SDS011;6085;49.452;8.502;2023-04-15T01:27:14;10.60;;;6.63;;
12048;SDS011;6085;49.452;8.502;2023-04-15T01:31:16;9.20;;;5.80;;
12048;SDS011;6085;49.452;8.502;2023-04-15T01:35:18;7.95;;;5.43;;
12048;SDS011;6085;49.452;8.502;2023-04-15T01:39:21;9.82;;;5.72;;
12048;SDS011;6085;49.452;8.502;2023-04-15T01:43:24;8.48;;;4.82;;
12048;SDS011;6085;49.452;8.502;2023-04-15T01:47:27;9.90;;;5.68;;
12048;SDS011;6085;49.452;8.502;2023-04-15T01:51:29;5.85;;;4.80;;
12048;SDS011;6085;49.452;8.502;2023-04-15T01:55:31;7.63;;;4.55;;
12048;SDS011;6085;49.452;8.502;2023-04-15T01:59:34;6.40;;;5.03;;
12048;SDS011;6085;49.452;8.502;2023-04-15T02:03:36;7.93;;;4.88;;
12048;SDS011;6085;49.452;8.502;2023-04-15T02:07:38;7.13;;;5.47;;
12048;SDS011;6085;49.452;8.502;2023-04-15T02:11:40;6.50;;;4.85;;
12048;SDS011;6085;49.452;8.502;2023-04-15T02:15:47;6.68;;;4.70;;
12048;SDS011;6085;49.452;8.502;2023-04-15T02:19:49;6.22;;;4.78;;
12048;SDS011;6085;49.452;8.502;2023-04-15T02:23:50;7.47;;;5.32;;
12048;SDS011;6085;49.452;8.502;2023-04-15T02:27:53;7.90;;;5.57;;
12048;SDS011;6085;49.452;8.502;2023-04-15T02:31:58;6.75;;;5.88;;
12048;SDS011;6085;49.452;8.502;2023-04-15T02:36:00;8.52;;;5.20;;
12048;SDS011;6085;49.452;8.502;2023-04-15T02:40:02;7.60;;;5.03;;
12048;SDS011;6085;49.452;8.502;2023-04-15T02:44:05;7.28;;;5.38;;
12048;SDS011;6085;49.452;8.502;2023-04-15T02:48:10;9.75;;;5.65;;
12048;SDS011;6085;49.452;8.502;2023-04-15T02:52:11;10.73;;;5.63;;
12048;SDS011;6085;49.452;8.502;2023-04-15T02:56:14;6.22;;;4.20;;
12048;SDS011;6085;49.452;8.502;2023-04-15T03:00:16;5.50;;;4.88;;
12048;SDS011;6085;49.452;8.502;2023-04-15T03:04:19;5.95;;;4.75;;
12048;SDS011;6085;49.452;8.502;2023-04-15T03:08:21;7.18;;;5.18;;
12048;SDS011;6085;49.452;8.502;2023-04-15T03:12:23;7.20;;;5.20;;
12048;SDS011;6085;49.452;8.502;2023-04-15T03:16:25;6.60;;;4.90;;
12048;SDS011;6085;49.452;8.502;2023-04-15T03:20:29;8.38;;;5.35;;
12048;SDS011;6085;49.452;8.502;2023-04-15T03:24:31;8.65;;;5.50;;
12048;SDS011;6085;49.452;8.502;2023-04-15T03:28:33;6.47;;;5.00;;
12048;SDS011;6085;49.452;8.502;2023-04-15T03:32:35;10.77;;;6.15;;
12048;SDS011;6085;49.452;8.502;2023-04-15T03:36:38;10.45;;;5.53;;
12048;SDS011;6085;49.452;8.502;2023-04-15T03:40:40;8.98;;;5.15;;
12048;SDS011;6085;49.452;8.502;2023-04-15T03:44:42;9.52;;;5.78;;
12048;SDS011;6085;49.452;8.502;2023-04-15T03:48:44;10.50;;;6.05;;
12048;SDS011;6085;49.452;8.502;2023-04-15T03:52:47;10.13;;;6.68;;
12048;SDS011;6085;49.452;8.502;2023-04-15T03:56:49;6.22;;;5.28;;
12048;SDS011;6085;49.452;8.502;2023-04-15T04:00:51;7.82;;;5.60;;
12048;SDS011;6085;49.452;8.502;2023-04-15T04:04:53;10.13;;;6.10;;
12048;SDS011;6085;49.452;8.502;2023-04-15T04:08:57;8.68;;;5.65;;
12048;SDS011;6085;49.452;8.502;2023-04-15T04:12:59;8.77;;;5.43;;
12048;SDS011;6085;49.452;8.502;2023-04-15T04:17:00;7.82;;;5.63;;
12048;SDS011;6085;49.452;8.502;2023-04-15T04:21:02;6.45;;;5.45;;
12048;SDS011;6085;49.452;8.502;2023-04-15T04:25:06;8.25;;;6.15;;
12048;SDS011;6085;49.452;8.502;2023-04-15T04:29:09;8.27;;;6.13;;
12048;SDS011;6085;49.452;8.502;2023-04-15T04:33:11;7.85;;;5.78;;
12048;SDS011;6085;49.452;8.502;2023-04-15T04:37:13;9.55;;;6.00;;
12048;SDS011;6085;49.452;8.502;2023-04-15T04:41:16;8.57;;;6.07;;
12048;SDS011;6085;49.452;8.502;2023-04-15T04:45:18;8.43;;;6.43;;
12048;SDS011;6085;49.452;8.502;2023-04-15T04:49:20;8.70;;;5.97;;
12048;SDS011;6085;49.452;8.502;2023-04-15T04:53:22;9.23;;;6.72;;
12048;SDS011;6085;49.452;8.502;2023-04-15T04:57:26;11.65;;;6.80;;
12048;SDS011;6085;49.452;8.502;2023-04-15T05:01:28;10.73;;;6.32;;
12048;SDS011;6085;49.452;8.502;2023-04-15T05:05:29;8.20;;;6.30;;
12048;SDS011;6085;49.452;8.502;2023-04-15T05:09:31;6.63;;;6.03;;
12048;SDS011;6085;49.452;8.502;2023-04-15T05:13:37;8.23;;;6.22;;
12048;SDS011;6085;49.452;8.502;2023-04-15T05:17:38;7.95;;;6.40;;
12048;SDS011;6085;49.452;8.502;2023-04-15T05:21:40;10.55;;;6.90;;
12048;SDS011;6085;49.452;8.502;2023-04-15T05:25:42;9.73;;;7.25;;
12048;SDS011;6085;49.452;8.502;2023-04-15T05:29:46;9.10;;;8.18;;
12048;SDS011;6085;49.452;8.502;2023-04-15T05:33:48;12.75;;;9.10;;
12048;SDS011;6085;49.452;8.502;2023-04-15T05:37:50;11.15;;;9.07;;
12048;SDS011;6085;49.452;8.502;2023-04-15T05:41:52;9.57;;;8.55;;
12048;SDS011;6085;49.452;8.502;2023-04-15T05:45:56;8.45;;;7.57;;
12048;SDS011;6085;49.452;8.502;2023-04-15T05:49:58;7.00;;;6.28;;
12048;SDS011;6085;49.452;8.502;2023-04-15T05:54:00;6.80;;;5.40;;
12048;SDS011;6085;49.452;8.502;2023-04-15T05:58:02;5.78;;;4.82;;
12048;SDS011;6085;49.452;8.502;2023-04-15T06:02:05;6.57;;;5.07;;
12048;SDS011;6085;49.452;8.502;2023-04-15T06:06:07;5.28;;;4.70;;
12048;SDS011;6085;49.452;8.502;2023-04-15T06:10:09;8.85;;;5.15;;
12048;SDS011;6085;49.452;8.502;2023-04-15T06:14:11;4.88;;;4.45;;
12048;SDS011;6085;49.452;8.502;2023-04-15T06:18:14;6.38;;;4.50;;
12048;SDS011;6085;49.452;8.502;2023-04-15T06:22:16;5.75;;;4.55;;
12048;SDS011;6085;49.452;8.502;2023-04-15T06:26:18;7.13;;;4.80;;
12048;SDS011;6085;49.452;8.502;2023-04-15T06:30:20;5.63;;;4.38;;
12048;SDS011;6085;49.452;8.502;2023-04-15T06:34:23;8.82;;;5.03;;
12048;SDS011;6085;49.452;8.502;2023-04-15T06:38:26;6.43;;;4.40;;
12048;SDS011;6085;49.452;8.502;2023-04-15T06:42:28;4.60;;;3.90;;
12048;SDS011;6085;49.452;8.502;2023-04-15T06:46:30;5.13;;;4.60;;
12048;SDS011;6085;49.452;8.502;2023-04-15T06:50:33;6.88;;;4.72;;
12048;SDS011;6085;49.452;8.502;2023-04-15T06:54:35;5.30;;;4.70;;
12048;SDS011;6085;49.452;8.502;2023-04-15T06:58:37;5.63;;;4.38;;
12048;SDS011;6085;49.452;8.502;2023-04-15T07:02:39;5.75;;;4.22;;
12048;SDS011;6085;49.452;8.502;2023-04-15T07:06:42;8.68;;;4.90;;
12048;SDS011;6085;49.452;8.502;2023-04-15T07:10:45;6.40;;;4.88;;
12048;SDS011;6085;49.452;8.502;2023-04-15T07:14:47;5.75;;;4.55;;
12048;SDS011;6085;49.452;8.502;2023-04-15T07:18:49;5.32;;;4.70;;
12048;SDS011;6085;49.452;8.502;2023-04-15T07:22:52;7.00;;;4.97;;
12048;SDS011;6085;49.452;8.502;2023-04-15T07:26:54;5.82;;;4.38;;
12048;SDS011;6085;49.452;8.502;2023-04-15T07:30:56;6.05;;;4.25;;
12048;SDS011;6085;49.452;8.502;2023-04-15T07:35:01;6.65;;;4.88;;
12048;SDS011;6085;49.452;8.502;2023-04-15T07:39:05;7.80;;;4.72;;
12048;SDS011;6085;49.452;8.502;2023-04-15T07:43:07;5.57;;;4.68;;
12048;SDS011;6085;49.452;8.502;2023-04-15T07:47:09;6.70;;;4.60;;
12048;SDS011;6085;49.452;8.502;2023-04-15T07:51:11;6.97;;;4.78;;
12048;SDS011;6085;49.452;8.502;2023-04-15T07:55:15;7.18;;;4.90;;
12048;SDS011;6085;49.452;8.502;2023-04-15T07:59:21;6.88;;;5.10;;
12048;SDS011;6085;49.452;8.502;2023-04-15T08:03:23;6.15;;;5.05;;
12048;SDS011;6085;49.452;8.502;2023-04-15T08:07:25;6.30;;;5.10;;
12048;SDS011;6085;49.452;8.502;2023-04-15T08:11:28;5.65;;;4.75;;
12048;SDS011;6085;49.452;8.502;2023-04-15T08:15:30;5.90;;;5.30;;
12048;SDS011;6085;49.452;8.502;2023-04-15T08:19:33;5.25;;;4.75;;
12048;SDS011;6085;49.452;8.502;2023-04-15T08:23:34;5.65;;;5.10;;
12048;SDS011;6085;49.452;8.502;2023-04-15T08:27:38;6.80;;;4.63;;
12048;SDS011;6085;49.452;8.502;2023-04-15T08:31:40;4.95;;;3.95;;
12048;SDS011;6085;49.452;8.502;2023-04-15T08:35:42;5.10;;;3.88;;
12048;SDS011;6085;49.452;8.502;2023-04-15T08:39:44;5.60;;;3.72;;
12048;SDS011;6085;49.452;8.502;2023-04-15T08:43:48;5.63;;;3.83;;
12048;SDS011;6085;49.452;8.502;2023-04-15T08:47:53;6.05;;;3.90;;
12048;SDS011;6085;49.452;8.502;2023-04-15T08:51:57;8.00;;;3.83;;
12048;SDS011;6085;49.452;8.502;2023-04-15T08:56:01;4.50;;;3.40;;
12048;SDS011;6085;49.452;8.502;2023-04-15T09:00:08;4.20;;;3.22;;
12048;SDS011;6085;49.452;8.502;2023-04-15T09:04:11;3.72;;;3.42;;
12048;SDS011;6085;49.452;8.502;2023-04-15T09:08:14;3.72;;;3.20;;
12048;SDS011;6085;49.452;8.502;2023-04-15T09:12:16;3.70;;;3.00;;
12048;SDS011;6085;49.452;8.502;2023-04-15T09:16:19;4.50;;;3.03;;
12048;SDS011;6085;49.452;8.502;2023-04-15T09:20:21;3.28;;;2.67;;
12048;SDS011;6085;49.452;8.502;2023-04-15T09:24:24;3.50;;;2.55;;
12048;SDS011;6085;49.452;8.502;2023-04-15T09:28:39;3.38;;;2.22;;
12048;SDS011;6085;49.452;8.502;2023-04-15T09:32:48;2.72;;;1.90;;
12048;SDS011;6085;49.452;8.502;2023-04-15T09:36:51;3.55;;;2.17;;
12048;SDS011;6085;49.452;8.502;2023-04-15T09:40:55;2.53;;;2.00;;
12048;SDS011;6085;49.452;8.502;2023-04-15T09:45:06;3.38;;;2.28;;
12048;SDS011;6085;49.452;8.502;2023-04-15T09:49:11;2.72;;;2.10;;
12048;SDS011;6085;49.452;8.502;2023-04-15T09:53:16;2.20;;;2.00;;
12048;SDS011;6085;49.452;8.502;2023-04-15T09:57:19;1.88;;;1.77;;
12048;SDS011;6085;49.452;8.502;2023-04-15T10:01:21;3.85;;;2.17;;
12048;SDS011;6085;49.452;8.502;2023-04-15T10:05:24;2.40;;;2.20;;
12048;SDS011;6085;49.452;8.502;2023-04-15T10:09:27;2.53;;;2.25;;
12048;SDS011;6085;49.452;8.502;2023-04-15T10:13:30;2.78;;;2.30;;
12048;SDS011;6085;49.452;8.502;2023-04-15T10:17:35;3.17;;;2.30;;
12048;SDS011;6085;49.452;8.502;2023-04-15T10:21:39;3.38;;;2.97;;
12048;SDS011;6085;49.452;8.502;2023-04-15T10:25:41;5.50;;;3.80;;
12048;SDS011;6085;49.452;8.502;2023-04-15T10:29:45;4.97;;;3.63;;
12048;SDS011;6085;49.452;8.502;2023-04-15T10:33:47;4.68;;;3.40;;
12048;SDS011;6085;49.452;8.502;2023-04-15T10:37:52;3.60;;;3.30;;
12048;SDS011;6085;49.452;8.502;2023-04-15T10:42:04;4.20;;;3.90;;
12048;SDS011;6085;49.452;8.502;2023-04-15T10:46:07;5.15;;;3.35;;
12048;SDS011;6085;49.452;8.502;2023-04-15T10:50:10;3.88;;;3.08;;
12048;SDS011;6085;49.452;8.502;2023-04-15T10:54:14;2.55;;;2.35;;
12048;SDS011;6085;49.452;8.502;2023-04-15T10:58:17;3.03;;;2.38;;
12048;SDS011;6085;49.452;8.502;2023-04-15T11:02:19;3.13;;;2.40;;
12048;SDS011;6085;49.452;8.502;2023-04-15T11:06:20;2.72;;;2.53;;
12048;SDS011;6085;49.452;8.502;2023-04-15T11:14:56;5.13;;;2.65;;
12048;SDS011;6085;49.452;8.502;2023-04-15T11:18:57;5.18;;;2.65;;
12048;SDS011;6085;49.452;8.502;2023-04-15T11:23:02;2.65;;;2.10;;
12048;SDS011;6085;49.452;8.502;2023-04-15T11:27:04;4.07;;;2.13;;
12048;SDS011;6085;49.452;8.502;2023-04-15T11:31:07;2.45;;;2.25;;
12048;SDS011;6085;49.452;8.502;2023-04-15T11:35:11;2.25;;;2.05;;
12048;SDS011;6085;49.452;8.502;2023-04-15T11:39:14;2.88;;;1.70;;
12048;SDS011;6085;49.452;8.502;2023-04-15T11:43:16;5.13;;;1.95;;
12048;SDS011;6085;49.452;8.502;2023-04-15T11:47:21;4.18;;;2.10;;
12048;SDS011;6085;49.452;8.502;2023-04-15T11:51:23;2.67;;;2.45;;
12048;SDS011;6085;49.452;8.502;2023-04-15T11:55:27;2.38;;;2.15;;
12048;SDS011;6085;49.452;8.502;2023-04-15T11:59:40;3.15;;;2.42;;
12048;SDS011;6085;49.452;8.502;2023-04-15T12:03:42;3.45;;;2.67;;
12048;SDS011;6085;49.452;8.502;2023-04-15T12:07:58;3.38;;;2.05;;
12048;SDS011;6085;49.452;8.502;2023-04-15T12:12:02;3.15;;;2.08;;
12048;SDS011;6085;49.452;8.502;2023-04-15T12:16:04;3.38;;;2.30;;
12048;SDS011;6085;49.452;8.502;2023-04-15T12:20:07;2.95;;;2.13;;
12048;SDS011;6085;49.452;8.502;2023-04-15T12:24:10;2.40;;;2.20;;
12048;SDS011;6085;49.452;8.502;2023-04-15T12:28:13;2.90;;;2.17;;
12048;SDS011;6085;49.452;8.502;2023-04-15T12:32:17;2.95;;;2.03;;
12048;SDS011;6085;49.452;8.502;2023-04-15T12:36:20;4.70;;;2.30;;
12048;SDS011;6085;49.452;8.502;2023-04-15T12:40:22;2.63;;;2.17;;
12048;SDS011;6085;49.452;8.502;2023-04-15T12:44:26;3.60;;;2.38;;
12048;SDS011;6085;49.452;8.502;2023-04-15T12:48:28;2.92;;;2.00;;
12048;SDS011;6085;49.452;8.502;2023-04-15T12:52:33;1.73;;;1.33;;
12048;SDS011;6085;49.452;8.502;2023-04-15T12:56:35;2.30;;;1.10;;
12048;SDS011;6085;49.452;8.502;2023-04-15T13:00:38;1.30;;;1.05;;
12048;SDS011;6085;49.452;8.502;2023-04-15T13:04:40;1.90;;;0.90;;
12048;SDS011;6085;49.452;8.502;2023-04-15T13:08:42;0.70;;;0.70;;
12048;SDS011;6085;49.452;8.502;2023-04-15T13:12:44;0.90;;;0.68;;
12048;SDS011;6085;49.452;8.502;2023-04-15T13:16:50;0.77;;;0.70;;
12048;SDS011;6085;49.452;8.502;2023-04-15T13:20:53;1.13;;;0.57;;
12048;SDS011;6085;49.452;8.502;2023-04-15T13:24:55;1.35;;;0.88;;
12048;SDS011;6085;49.452;8.502;2023-04-15T13:28:57;0.90;;;0.70;;
12048;SDS011;6085;49.452;8.502;2023-04-15T13:33:02;0.70;;;0.70;;
12048;SDS011;6085;49.452;8.502;2023-04-15T13:37:07;0.75;;;0.68;;
12048;SDS011;6085;49.452;8.502;2023-04-15T13:41:09;1.35;;;0.60;;
12048;SDS011;6085;49.452;8.502;2023-04-15T13:45:11;0.80;;;0.63;;
12048;SDS011;6085;49.452;8.502;2023-04-15T13:49:14;0.57;;;0.57;;
12048;SDS011;6085;49.452;8.502;2023-04-15T13:53:16;0.90;;;0.70;;
12048;SDS011;6085;49.452;8.502;2023-04-15T13:57:18;1.02;;;0.70;;
12048;SDS011;6085;49.452;8.502;2023-04-15T14:01:20;0.57;;;0.50;;
12048;SDS011;6085;49.452;8.502;2023-04-15T14:05:23;0.77;;;0.77;;
12048;SDS011;6085;49.452;8.502;2023-04-15T14:09:25;0.60;;;0.60;;
12048;SDS011;6085;49.452;8.502;2023-04-15T14:13:27;1.27;;;0.90;;
12048;SDS011;6085;49.452;8.502;2023-04-15T14:17:29;1.15;;;0.88;;
12048;SDS011;6085;49.452;8.502;2023-04-15T14:21:32;1.52;;;0.70;;
12048;SDS011;6085;49.452;8.502;2023-04-15T14:25:34;2.53;;;1.17;;
12048;SDS011;6085;49.452;8.502;2023-04-15T14:29:38;2.60;;;1.20;;
12048;SDS011;6085;49.452;8.502;2023-04-15T14:33:40;2.03;;;1.50;;
12048;SDS011;6085;49.452;8.502;2023-04-15T14:37:43;2.78;;;1.90;;
12048;SDS011;6085;49.452;8.502;2023-04-15T14:41:45;2.15;;;1.90;;
12048;SDS011;6085;49.452;8.502;2023-04-15T14:45:47;1.80;;;1.60;;
12048;SDS011;6085;49.452;8.502;2023-04-15T14:49:50;1.15;;;1.15;;
12048;SDS011;6085;49.452;8.502;2023-04-15T14:53:53;3.22;;;1.20;;
12048;SDS011;6085;49.452;8.502;2023-04-15T14:57:55;1.40;;;1.30;;
12048;SDS011;6085;49.452;8.502;2023-04-15T15:01:57;1.30;;;1.20;;
12048;SDS011;6085;49.452;8.502;2023-04-15T15:05:59;1.20;;;1.10;;
12048;SDS011;6085;49.452;8.502;2023-04-15T15:10:03;1.30;;;1.30;;
12048;SDS011;6085;49.452;8.502;2023-04-15T15:14:06;1.23;;;1.20;;
12048;SDS011;6085;49.452;8.502;2023-04-15T15:18:08;0.95;;;0.95;;
12048;SDS011;6085;49.452;8.502;2023-04-15T15:22:11;0.95;;;0.95;;
12048;SDS011;6085;49.452;8.502;2023-04-15T15:26:14;1.40;;;1.30;;
12048;SDS011;6085;49.452;8.502;2023-04-15T15:30:16;1.33;;;1.23;;
12048;SDS011;6085;49.452;8.502;2023-04-15T15:34:18;1.23;;;1.10;;
12048;SDS011;6085;49.452;8.502;2023-04-15T15:38:20;1.23;;;1.20;;
12048;SDS011;6085;49.452;8.502;2023-04-15T15:42:24;1.30;;;1.20;;
12048;SDS011;6085;49.452;8.502;2023-04-15T15:46:26;1.40;;;1.30;;
12048;SDS011;6085;49.452;8.502;2023-04-15T15:50:30;1.23;;;1.20;;
12048;SDS011;6085;49.452;8.502;2023-04-15T15:54:32;1.70;;;1.60;;
12048;SDS011;6085;49.452;8.502;2023-04-15T15:58:38;1.80;;;1.70;;
12048;SDS011;6085;49.452;8.502;2023-04-15T16:02:39;1.70;;;1.65;;
12048;SDS011;6085;49.452;8.502;2023-04-15T16:06:42;1.77;;;1.65;;
12048;SDS011;6085;49.452;8.502;2023-04-15T16:10:47;1.70;;;1.60;;
12048;SDS011;6085;49.452;8.502;2023-04-15T16:14:50;2.85;;;2.20;;
12048;SDS011;6085;49.452;8.502;2023-04-15T16:18:52;2.50;;;2.30;;
12048;SDS011;6085;49.452;8.502;2023-04-15T16:22:54;2.30;;;2.20;;
12048;SDS011;6085;49.452;8.502;2023-04-15T16:26:57;2.47;;;2.28;;
12048;SDS011;6085;49.452;8.502;2023-04-15T16:31:00;2.50;;;2.30;;
12048;SDS011;6085;49.452;8.502;2023-04-15T16:35:02;2.33;;;2.22;;
12048;SDS011;6085;49.452;8.502;2023-04-15T16:39:04;2.13;;;2.03;;
12048;SDS011;6085;49.452;8.502;2023-04-15T16:43:06;2.10;;;2.00;;
12048;SDS011;6085;49.452;8.502;2023-04-15T16:47:11;2.30;;;2.10;;
12048;SDS011;6085;49.452;8.502;2023-04-15T16:51:13;2.20;;;2.10;;
12048;SDS011;6085;49.452;8.502;2023-04-15T16:55:16;3.65;;;2.40;;
12048;SDS011;6085;49.452;8.502;2023-04-15T16:59:18;2.30;;;2.13;;
12048;SDS011;6085;49.452;8.502;2023-04-15T17:03:21;3.55;;;3.08;;
12048;SDS011;6085;49.452;8.502;2023-04-15T17:07:23;3.20;;;2.95;;
12048;SDS011;6085;49.452;8.502;2023-04-15T17:11:26;3.75;;;3.38;;
12048;SDS011;6085;49.452;8.502;2023-04-15T17:15:28;3.65;;;3.35;;
12048;SDS011;6085;49.452;8.502;2023-04-15T17:19:31;3.83;;;3.53;;
12048;SDS011;6085;49.452;8.502;2023-04-15T17:23:33;3.92;;;3.63;;
12048;SDS011;6085;49.452;8.502;2023-04-15T17:27:35;4.03;;;3.72;;
12048;SDS011;6085;49.452;8.502;2023-04-15T17:31:38;4.50;;;3.92;;
12048;SDS011;6085;49.452;8.502;2023-04-15T17:35:41;4.40;;;4.00;;
12048;SDS011;6085;49.452;8.502;2023-04-15T17:39:44;4.10;;;3.80;;
12048;SDS011;6085;49.452;8.502;2023-04-15T17:43:46;4.00;;;3.40;;
12048;SDS011;6085;49.452;8.502;2023-04-15T17:47:48;3.20;;;3.00;;
12048;SDS011;6085;49.452;8.502;2023-04-15T17:51:51;4.18;;;3.63;;
12048;SDS011;6085;49.452;8.502;2023-04-15T17:55:53;4.45;;;3.67;;
12048;SDS011;6085;49.452;8.502;2023-04-15T17:59:55;5.47;;;5.00;;
12048;SDS011;6085;49.452;8.502;2023-04-15T18:03:57;4.30;;;3.90;;
12048;SDS011;6085;49.452;8.502;2023-04-15T18:08:00;4.60;;;4.18;;
12048;SDS011;6085;49.452;8.502;2023-04-15T18:12:02;5.85;;;4.38;;
12048;SDS011;6085;49.452;8.502;2023-04-15T18:16:06;4.45;;;4.05;;
12048;SDS011;6085;49.452;8.502;2023-04-15T18:20:09;4.60;;;4.20;;
12048;SDS011;6085;49.452;8.502;2023-04-15T18:24:13;4.18;;;3.78;;
12048;SDS011;6085;49.452;8.502;2023-04-15T18:28:15;4.80;;;3.95;;
12048;SDS011;6085;49.452;8.502;2023-04-15T18:32:17;4.40;;;4.00;;
12048;SDS011;6085;49.452;8.502;2023-04-15T18:36:19;5.60;;;4.63;;
12048;SDS011;6085;49.452;8.502;2023-04-15T18:40:22;5.05;;;4.55;;
12048;SDS011;6085;49.452;8.502;2023-04-15T18:44:24;4.75;;;4.35;;
12048;SDS011;6085;49.452;8.502;2023-04-15T18:48:27;5.47;;;4.45;;
12048;SDS011;6085;49.452;8.502;2023-04-15T18:52:29;5.10;;;4.57;;
12048;SDS011;6085;49.452;8.502;2023-04-15T18:56:34;5.50;;;5.00;;
12048;SDS011;6085;49.452;8.502;2023-04-15T19:00:36;5.95;;;5.18;;
12048;SDS011;6085;49.452;8.502;2023-04-15T19:04:40;7.15;;;5.85;;
12048;SDS011;6085;49.452;8.502;2023-04-15T19:08:42;5.53;;;5.03;;
12048;SDS011;6085;49.452;8.502;2023-04-15T19:12:45;6.07;;;5.32;;
12048;SDS011;6085;49.452;8.502;2023-04-15T19:16:47;6.20;;;5.60;;
12048;SDS011;6085;49.452;8.502;2023-04-15T19:20:49;7.47;;;5.72;;
12048;SDS011;6085;49.452;8.502;2023-04-15T19:24:54;6.85;;;6.15;;
12048;SDS011;6085;49.452;8.502;2023-04-15T19:28:58;6.80;;;6.10;;
12048;SDS011;6085;49.452;8.502;2023-04-15T19:33:00;6.82;;;6.13;;
12048;SDS011;6085;49.452;8.502;2023-04-15T19:37:01;7.05;;;6.35;;
12048;SDS011;6085;49.452;8.502;2023-04-15T19:41:03;7.03;;;6.43;;
12048;SDS011;6085;49.452;8.502;2023-04-15T19:45:07;8.10;;;7.30;;
12048;SDS011;6085;49.452;8.502;2023-04-15T19:49:09;8.88;;;8.00;;
12048;SDS011;6085;49.452;8.502;2023-04-15T19:53:11;8.25;;;7.45;;
12048;SDS011;6085;49.452;8.502;2023-04-15T19:57:13;8.40;;;7.60;;
12048;SDS011;6085;49.452;8.502;2023-04-15T20:01:16;9.43;;;8.52;;
12048;SDS011;6085;49.452;8.502;2023-04-15T20:05:18;10.13;;;9.13;;
12048;SDS011;6085;49.452;8.502;2023-04-15T20:09:21;10.13;;;8.85;;
12048;SDS011;6085;49.452;8.502;2023-04-15T20:13:22;9.57;;;8.68;;
12048;SDS011;6085;49.452;8.502;2023-04-15T20:17:26;10.82;;;8.82;;
12048;SDS011;6085;49.452;8.502;2023-04-15T20:21:32;9.65;;;8.63;;
12048;SDS011;6085;49.452;8.502;2023-04-15T20:25:34;9.70;;;8.80;;
12048;SDS011;6085;49.452;8.502;2023-04-15T20:29:36;10.52;;;9.00;;
12048;SDS011;6085;49.452;8.502;2023-04-15T20:33:39;10.55;;;9.38;;
12048;SDS011;6085;49.452;8.502;2023-04-15T20:37:42;10.70;;;8.98;;
12048;SDS011;6085;49.452;8.502;2023-04-15T20:41:44;9.82;;;8.82;;
12048;SDS011;6085;49.452;8.502;2023-04-15T20:45:46;9.48;;;8.57;;
12048;SDS011;6085;49.452;8.502;2023-04-15T20:49:50;10.00;;;8.25;;
12048;SDS011;6085;49.452;8.502;2023-04-15T20:53:52;9.32;;;8.25;;
12048;SDS011;6085;49.452;8.502;2023-04-15T20:57:54;9.68;;;8.75;;
12048;SDS011;6085;49.452;8.502;2023-04-15T21:01:57;9.90;;;8.90;;
12048;SDS011;6085;49.452;8.502;2023-04-15T21:06:00;9.38;;;8.48;;
12048;SDS011;6085;49.452;8.502;2023-04-15T21:10:02;9.18;;;7.90;;
12048;SDS011;6085;49.452;8.502;2023-04-15T21:14:04;10.90;;;8.00;;
12048;SDS011;6085;49.452;8.502;2023-04-15T21:18:07;8.68;;;7.40;;
12048;SDS011;6085;49.452;8.502;2023-04-15T21:22:11;8.63;;;7.60;;
12048;SDS011;6085;49.452;8.502;2023-04-15T21:26:13;7.60;;;6.88;;
12048;SDS011;6085;49.452;8.502;2023-04-15T21:30:15;7.82;;;7.05;;
12048;SDS011;6085;49.452;8.502;2023-04-15T21:34:17;7.30;;;6.60;;
12048;SDS011;6085;49.452;8.502;2023-04-15T21:38:20;8.52;;;6.65;;
12048;SDS011;6085;49.452;8.502;2023-04-15T21:42:22;6.75;;;6.05;;
12048;SDS011;6085;49.452;8.502;2023-04-15T21:46:25;7.32;;;6.63;;
12048;SDS011;6085;49.452;8.502;2023-04-15T21:50:27;7.68;;;6.68;;
12048;SDS011;6085;49.452;8.502;2023-04-15T21:54:30;6.75;;;6.05;;
12048;SDS011;6085;49.452;8.502;2023-04-15T21:58:32;6.15;;;5.50;;
12048;SDS011;6085;49.452;8.502;2023-04-15T22:02:34;6.82;;;6.20;;
12048;SDS011;6085;49.452;8.502;2023-04-15T22:06:37;6.70;;;6.00;;
12048;SDS011;6085;49.452;8.502;2023-04-15T22:10:40;6.50;;;5.90;;
12048;SDS011;6085;49.452;8.502;2023-04-15T22:14:42;5.97;;;5.35;;
12048;SDS011;6085;49.452;8.502;2023-04-15T22:18:44;6.50;;;5.90;;
12048;SDS011;6085;49.452;8.502;2023-04-15T22:22:46;6.13;;;5.53;;
12048;SDS011;6085;49.452;8.502;2023-04-15T22:26:49;7.13;;;6.45;;
12048;SDS011;6085;49.452;8.502;2023-04-15T22:30:51;5.70;;;5.20;;
12048;SDS011;6085;49.452;8.502;2023-04-15T22:34:53;6.72;;;5.75;;
12048;SDS011;6085;49.452;8.502;2023-04-15T22:38:55;6.53;;;5.93;;
12048;SDS011;6085;49.452;8.502;2023-04-15T22:42:58;6.40;;;5.70;;
12048;SDS011;6085;49.452;8.502;2023-04-15T22:47:00;6.40;;;5.80;;
12048;SDS011;6085;49.452;8.502;2023-04-15T22:51:03;6.38;;;5.32;;
12048;SDS011;6085;49.452;8.502;2023-04-15T22:55:05;6.85;;;6.25;;
12048;SDS011;6085;49.452;8.502;2023-04-15T22:59:09;7.70;;;6.38;;
12048;SDS011;6085;49.452;8.502;2023-04-15T23:03:11;6.60;;;6.00;;
12048;SDS011;6085;49.452;8.502;2023-04-15T23:07:13;7.03;;;6.28;;
12048;SDS011;6085;49.452;8.502;2023-04-15T23:11:15;7.03;;;6.32;;
12048;SDS011;6085;49.452;8.502;2023-04-15T23:15:18;7.13;;;6.43;;
12048;SDS011;6085;49.452;8.502;2023-04-15T23:19:21;6.43;;;5.78;;
12048;SDS011;6085;49.452;8.502;2023-04-15T23:23:23;6.05;;;5.45;;
12048;SDS011;6085;49.452;8.502;2023-04-15T23:27:25;5.85;;;5.25;;
12048;SDS011;6085;49.452;8.502;2023-04-15T23:31:28;6.30;;;5.70;;
12048;SDS011;6085;49.452;8.502;2023-04-15T23:35:30;6.63;;;5.93;;
12048;SDS011;6085;49.452;8.502;2023-04-15T23:39:32;6.55;;;5.95;;
12048;SDS011;6085;49.452;8.502;2023-04-15T23:43:34;6.68;;;6.05;;
12048;SDS011;6085;49.452;8.502;2023-04-15T23:47:37;7.78;;;6.80;;
12048;SDS011;6085;49.452;8.502;2023-04-15T23:51:39;8.45;;;7.10;;
12048;SDS011;6085;49.452;8.502;2023-04-15T23:55:41;9.88;;;8.05;;
12048;SDS011;6085;49.452;8.502;2023-04-15T23:59:43;9.68;;;8.57;;
